createdAt,value
2019-02-20T00:00:23.504Z,4.52
2019-02-20T00:02:49.338Z,4.51
2019-02-20T00:05:15.182Z,4.49
2019-02-20T00:07:41.033Z,4.45
2019-02-20T00:10:07.010Z,4.40
2019-02-20T00:12:32.837Z,4.37
2019-02-20T00:14:58.701Z,4.32
2019-02-20T00:17:24.500Z,4.27
2019-02-20T00:19:50.392Z,4.25
2019-02-20T00:22:16.346Z,4.29
2019-02-20T00:24:42.308Z,4.35
2019-02-20T00:27:08.145Z,4.41
2019-02-20T00:29:33.979Z,4.55
2019-02-20T00:31:59.834Z,4.59
2019-02-20T00:34:25.671Z,4.66
2019-02-20T00:36:51.516Z,4.65
2019-02-20T00:39:17.322Z,4.57
2019-02-20T00:41:43.160Z,4.61
2019-02-20T00:44:16.657Z,4.59
2019-02-20T00:46:44.427Z,4.57
2019-02-20T00:49:12.186Z,4.49
2019-02-20T00:51:42.617Z,4.43
2019-02-20T00:54:09.380Z,4.48
2019-02-20T00:56:35.529Z,4.50
2019-02-20T00:59:01.368Z,4.56
2019-02-20T01:01:27.320Z,4.69
2019-02-20T01:03:53.157Z,4.67
2019-02-20T01:06:18.997Z,4.60
2019-02-20T01:08:44.822Z,4.60
2019-02-20T01:11:10.767Z,4.66
2019-02-20T01:13:36.586Z,4.72
2019-02-20T01:16:02.439Z,4.65
2019-02-20T01:18:28.264Z,4.57
2019-02-20T01:20:54.135Z,4.51
2019-02-20T01:23:19.992Z,4.44
2019-02-20T01:25:45.806Z,4.37
2019-02-20T01:28:11.944Z,4.31
2019-02-20T01:30:37.766Z,4.27
2019-02-20T01:33:03.717Z,4.21
2019-02-20T01:35:29.552Z,4.17
2019-02-20T01:37:55.394Z,4.14
2019-02-20T01:40:21.216Z,4.08
2019-02-20T01:42:47.096Z,4.08
2019-02-20T01:45:12.917Z,4.09
2019-02-20T01:47:38.762Z,4.07
2019-02-20T01:50:06.193Z,4.04
2019-02-20T01:52:32.158Z,3.98
2019-02-20T01:54:58.025Z,3.95
2019-02-20T01:57:23.847Z,3.90
2019-02-20T01:59:49.720Z,3.85
2019-02-20T02:02:15.552Z,3.84
2019-02-20T02:04:41.504Z,3.82
2019-02-20T02:07:07.339Z,3.80
2019-02-20T02:09:33.213Z,3.76
2019-02-20T02:11:59.031Z,3.75
2019-02-20T02:14:24.986Z,3.71
2019-02-20T02:16:50.806Z,3.71
2019-02-20T02:19:16.639Z,3.70
2019-02-20T02:21:42.508Z,3.70
2019-02-20T02:24:08.463Z,3.72
2019-02-20T02:26:34.282Z,3.75
2019-02-20T02:29:00.113Z,3.79
2019-02-20T02:31:25.952Z,3.79
2019-02-20T02:33:52.581Z,3.83
2019-02-20T02:36:18.417Z,3.84
2019-02-20T02:38:44.231Z,3.87
2019-02-20T02:41:10.089Z,3.90
2019-02-20T02:43:35.911Z,3.93
2019-02-20T02:46:01.751Z,3.95
2019-02-20T02:48:27.591Z,4.02
2019-02-20T02:50:53.438Z,4.04
2019-02-20T02:53:19.264Z,4.10
2019-02-20T02:55:45.112Z,4.14
2019-02-20T02:58:10.932Z,4.14
2019-02-20T03:00:36.779Z,4.20
2019-02-20T03:03:02.686Z,4.14
2019-02-20T03:05:28.526Z,4.11
2019-02-20T03:07:54.366Z,4.12
2019-02-20T03:10:20.215Z,4.09
2019-02-20T03:12:46.040Z,4.10
2019-02-20T03:15:12.001Z,4.12
2019-02-20T03:17:37.864Z,4.08
2019-02-20T03:20:06.450Z,4.02
2019-02-20T03:22:32.271Z,4.06
2019-02-20T03:24:58.128Z,4.02
2019-02-20T03:27:23.940Z,4.05
2019-02-20T03:29:49.767Z,4.09
2019-02-20T03:32:15.600Z,4.09
2019-02-20T03:34:41.433Z,4.11
2019-02-20T03:37:07.270Z,4.15
2019-02-20T03:39:33.155Z,4.10
2019-02-20T03:41:59.461Z,4.13
2019-02-20T03:44:25.288Z,4.15
2019-02-20T03:46:51.164Z,4.19
2019-02-20T03:49:16.975Z,4.21
2019-02-20T03:51:42.809Z,4.23
2019-02-20T03:54:08.646Z,4.25
2019-02-20T03:56:34.503Z,4.27
2019-02-20T03:59:00.329Z,4.37
2019-02-20T04:01:26.190Z,4.33
2019-02-20T04:03:52.001Z,4.41
2019-02-20T04:06:17.858Z,4.46
2019-02-20T04:08:43.683Z,4.49
2019-02-20T04:11:09.523Z,4.54
2019-02-20T04:13:35.381Z,4.54
2019-02-20T04:16:01.212Z,4.56
2019-02-20T04:18:27.085Z,4.54
2019-02-20T04:20:52.926Z,4.57
2019-02-20T04:23:18.789Z,4.51
2019-02-20T04:25:44.643Z,4.53
2019-02-20T04:28:10.507Z,4.54
2019-02-20T04:30:36.350Z,4.47
2019-02-20T04:33:02.499Z,4.50
2019-02-20T04:35:28.327Z,4.59
2019-02-20T04:37:54.156Z,4.59
2019-02-20T04:40:19.991Z,4.52
2019-02-20T04:42:45.854Z,4.62
2019-02-20T04:45:11.672Z,4.62
2019-02-20T04:47:37.627Z,4.62
2019-02-20T04:50:06.467Z,4.62
2019-02-20T04:52:32.352Z,4.64
2019-02-20T04:54:58.172Z,4.70
2019-02-20T04:57:23.994Z,4.60
2019-02-20T04:59:49.806Z,4.71
2019-02-20T05:02:15.652Z,4.73
2019-02-20T05:04:41.622Z,4.71
2019-02-20T05:07:07.549Z,4.80
2019-02-20T05:09:33.816Z,4.80
2019-02-20T05:11:59.638Z,4.80
2019-02-20T05:14:25.494Z,4.81
2019-02-20T05:16:51.367Z,4.81
2019-02-20T05:19:17.287Z,4.79
2019-02-20T05:21:43.225Z,4.79
2019-02-20T05:24:09.063Z,4.80
2019-02-20T05:26:34.889Z,4.78
2019-02-20T05:29:00.730Z,4.83
2019-02-20T05:31:26.543Z,4.86
2019-02-20T05:33:52.392Z,4.78
2019-02-20T05:36:18.215Z,4.71
2019-02-20T05:38:44.084Z,4.63
2019-02-20T05:41:09.902Z,4.64
2019-02-20T05:43:35.755Z,4.65
2019-02-20T05:46:01.588Z,4.62
2019-02-20T05:48:27.413Z,4.58
2019-02-20T05:50:53.252Z,4.51
2019-02-20T05:53:19.059Z,4.41
2019-02-20T05:55:44.922Z,4.38
2019-02-20T05:58:10.855Z,4.27
2019-02-20T06:00:36.712Z,4.20
2019-02-20T06:03:04.789Z,4.18
2019-02-20T06:05:30.406Z,4.06
2019-02-20T06:07:56.424Z,4.04
2019-02-20T06:10:22.227Z,3.95
2019-02-20T06:12:48.065Z,3.86
2019-02-20T06:15:14.007Z,3.88
2019-02-20T06:17:39.803Z,3.86
2019-02-20T06:20:10.219Z,3.88
2019-02-20T06:22:36.120Z,3.93
2019-02-20T06:25:03.445Z,3.94
2019-02-20T06:27:29.321Z,4.01
2019-02-20T06:29:55.159Z,4.09
2019-02-20T06:32:21.013Z,4.17
2019-02-20T06:34:46.833Z,4.25
2019-02-20T06:37:12.783Z,4.28
2019-02-20T06:39:38.632Z,4.37
2019-02-20T06:42:04.528Z,4.32
2019-02-20T06:44:30.597Z,4.41
2019-02-20T06:46:56.475Z,4.42
2019-02-20T06:49:22.302Z,4.43
2019-02-20T06:51:48.165Z,4.40
2019-02-20T06:54:14.092Z,4.38
2019-02-20T06:56:39.943Z,4.30
2019-02-20T06:59:05.776Z,4.37
2019-02-20T07:01:31.756Z,4.56
2019-02-20T07:03:57.561Z,4.62
2019-02-20T07:06:38.870Z,4.74
2019-02-20T07:09:29.376Z,4.73
2019-02-20T07:12:28.843Z,4.88
2019-02-20T07:15:13.265Z,4.89
2019-02-20T07:17:45.928Z,4.89
2019-02-20T07:20:24.163Z,4.99
2019-02-20T07:23:06.055Z,5.14
2019-02-20T07:25:38.688Z,5.26
2019-02-20T07:28:23.607Z,5.24
2019-02-20T07:30:49.620Z,5.39
2019-02-20T07:33:15.471Z,5.42
2019-02-20T07:35:41.388Z,5.53
2019-02-20T07:38:07.324Z,5.65
2019-02-20T07:40:33.149Z,5.77
2019-02-20T07:42:59.008Z,5.91
2019-02-20T07:45:24.821Z,5.91
2019-02-20T07:47:50.684Z,6.00
2019-02-20T07:50:17.013Z,5.99
2019-02-20T07:52:42.853Z,5.99
2019-02-20T07:55:13.193Z,5.85
2019-02-20T07:57:36.535Z,5.74
2019-02-20T08:00:05.787Z,5.69
2019-02-20T08:02:31.601Z,5.71
2019-02-20T08:04:57.444Z,5.87
2019-02-20T08:07:23.280Z,5.89
2019-02-20T08:09:49.118Z,6.00
2019-02-20T08:12:14.934Z,5.92
2019-02-20T08:14:40.784Z,5.92
2019-02-20T08:17:06.605Z,6.02
2019-02-20T08:19:32.744Z,6.01
2019-02-20T08:21:58.710Z,6.09
2019-02-20T08:24:24.702Z,6.16
2019-02-20T08:26:50.798Z,6.40
2019-02-20T08:29:16.606Z,6.74
2019-02-20T08:31:42.463Z,7.09
2019-02-20T08:34:08.291Z,7.29
2019-02-20T08:36:34.255Z,7.57
2019-02-20T08:39:00.087Z,7.77
2019-02-20T08:41:25.954Z,8.08
2019-02-20T08:43:51.791Z,8.13
2019-02-20T08:46:17.652Z,8.10
2019-02-20T08:48:43.488Z,8.25
2019-02-20T08:51:09.349Z,8.29
2019-02-20T08:53:35.178Z,8.06
2019-02-20T08:56:01.165Z,7.98
2019-02-20T08:58:26.988Z,8.25
2019-02-20T09:00:52.965Z,8.22
2019-02-20T09:03:18.807Z,8.30
2019-02-20T09:05:44.674Z,8.58
2019-02-20T09:08:10.523Z,8.50
2019-02-20T09:10:36.388Z,8.83
2019-02-20T09:13:02.440Z,8.89
2019-02-20T09:15:28.253Z,9.01
2019-02-20T09:17:54.127Z,9.06
2019-02-20T09:20:20.002Z,9.60
2019-02-20T09:22:45.845Z,9.81
2019-02-20T09:25:19.603Z,10.02
2019-02-20T09:27:39.443Z,10.22
2019-02-20T09:30:09.085Z,10.27
2019-02-20T09:32:34.933Z,10.42
2019-02-20T09:35:00.801Z,10.20
2019-02-20T09:37:26.675Z,10.26
2019-02-20T09:39:52.496Z,10.38
2019-02-20T09:42:18.466Z,10.25
2019-02-20T09:44:44.889Z,10.09
2019-02-20T09:47:11.435Z,10.38
2019-02-20T09:49:37.268Z,10.29
2019-02-20T09:52:03.209Z,10.27
2019-02-20T09:54:29.088Z,10.33
2019-02-20T09:56:57.145Z,10.37
2019-02-20T09:59:23.215Z,10.64
2019-02-20T10:01:49.212Z,11.03
2019-02-20T10:04:15.053Z,11.36
2019-02-20T10:06:40.972Z,11.76
2019-02-20T10:09:06.989Z,12.32
2019-02-20T10:11:32.805Z,12.78
2019-02-20T10:13:58.665Z,12.85
2019-02-20T10:16:24.728Z,12.65
2019-02-20T10:18:50.586Z,13.29
2019-02-20T10:21:17.263Z,13.72
2019-02-20T10:23:45.270Z,14.59
2019-02-20T10:26:11.266Z,15.88
2019-02-20T10:28:37.127Z,16.31
2019-02-20T10:31:02.962Z,15.59
2019-02-20T10:33:28.807Z,15.30
2019-02-20T10:35:54.644Z,15.48
2019-02-20T10:38:20.461Z,16.64
2019-02-20T10:40:46.314Z,15.97
2019-02-20T10:43:12.132Z,16.88
2019-02-20T10:45:37.966Z,17.77
2019-02-20T10:48:03.917Z,19.61
2019-02-20T10:50:29.918Z,19.51
2019-02-20T10:52:55.877Z,19.04
2019-02-20T10:55:21.712Z,20.03
2019-02-20T10:57:47.539Z,21.08
2019-02-20T11:00:25.349Z,20.21
2019-02-20T11:02:51.280Z,20.65
2019-02-20T11:05:17.261Z,19.70
2019-02-20T11:07:43.086Z,19.72
2019-02-20T11:10:08.923Z,18.83
2019-02-20T11:12:34.787Z,17.93
2019-02-20T11:15:00.642Z,18.25
2019-02-20T11:17:26.466Z,18.38
2019-02-20T11:19:52.364Z,17.96
2019-02-20T11:22:18.301Z,17.81
2019-02-20T11:24:44.128Z,18.34
2019-02-20T11:27:09.989Z,18.95
2019-02-20T11:29:35.819Z,19.28
2019-02-20T11:32:01.797Z,20.07
2019-02-20T11:34:27.628Z,18.72
2019-02-20T11:36:53.486Z,18.26
2019-02-20T11:39:19.415Z,17.28
2019-02-20T11:41:45.273Z,17.82
2019-02-20T11:44:11.101Z,18.17
2019-02-20T11:46:36.967Z,19.77
2019-02-20T11:49:02.808Z,18.98
2019-02-20T11:51:28.683Z,19.51
2019-02-20T11:53:54.642Z,19.85
2019-02-20T11:56:26.468Z,19.52
2019-02-20T11:58:48.221Z,17.64
2019-02-20T12:01:14.389Z,17.88
2019-02-20T12:03:40.235Z,18.65
2019-02-20T12:06:06.196Z,20.00
2019-02-20T12:08:32.170Z,19.09
2019-02-20T12:10:57.996Z,21.95
2019-02-20T12:13:23.859Z,21.49
2019-02-20T12:15:50.009Z,19.63
2019-02-20T12:18:17.577Z,19.45
2019-02-20T12:20:43.639Z,17.93
2019-02-20T12:23:09.620Z,18.97
2019-02-20T12:25:35.547Z,20.84
2019-02-20T12:28:01.433Z,23.45
2019-02-20T12:30:27.389Z,23.75
2019-02-20T12:32:53.251Z,23.55
2019-02-20T12:35:19.081Z,23.34
2019-02-20T12:37:45.017Z,22.50
2019-02-20T12:40:10.980Z,22.69
2019-02-20T12:42:36.945Z,23.00
2019-02-20T12:45:04.917Z,23.88
2019-02-20T12:47:30.781Z,21.74
2019-02-20T12:49:56.783Z,23.75
2019-02-20T12:52:22.674Z,22.98
2019-02-20T12:54:48.545Z,23.14
2019-02-20T12:57:14.379Z,22.80
2019-02-20T12:59:40.262Z,20.65
2019-02-20T13:02:06.092Z,20.65
2019-02-20T13:04:31.957Z,22.44
2019-02-20T13:06:59.530Z,22.21
2019-02-20T13:09:25.641Z,21.76
2019-02-20T13:11:51.565Z,20.16
2019-02-20T13:14:17.396Z,19.74
2019-02-20T13:16:43.566Z,20.57
2019-02-20T13:19:09.459Z,20.18
2019-02-20T13:21:35.438Z,19.61
2019-02-20T13:24:01.380Z,21.92
2019-02-20T13:26:27.226Z,20.85
2019-02-20T13:28:53.102Z,19.29
2019-02-20T13:31:19.070Z,21.68
2019-02-20T13:33:44.916Z,21.11
2019-02-20T13:36:10.805Z,22.72
2019-02-20T13:38:36.632Z,22.07
2019-02-20T13:41:02.629Z,23.80
2019-02-20T13:43:28.469Z,21.05
2019-02-20T13:45:54.444Z,19.07
2019-02-20T13:48:20.293Z,17.29
2019-02-20T13:50:46.156Z,17.44
2019-02-20T13:53:14.189Z,16.70
2019-02-20T13:55:39.864Z,16.60
2019-02-20T13:58:05.823Z,21.19
2019-02-20T14:00:31.791Z,23.01
2019-02-20T14:02:57.621Z,19.83
2019-02-20T14:05:24.035Z,16.90
2019-02-20T14:07:49.873Z,18.42
2019-02-20T14:10:19.522Z,18.57
2019-02-20T14:12:45.591Z,19.43
2019-02-20T14:15:11.541Z,19.10
2019-02-20T14:17:37.499Z,17.24
2019-02-20T14:20:06.531Z,17.99
2019-02-20T14:22:32.402Z,19.85
2019-02-20T14:24:58.545Z,18.90
2019-02-20T14:27:24.397Z,17.72
2019-02-20T14:29:50.344Z,17.97
2019-02-20T14:32:16.207Z,18.90
2019-02-20T14:34:42.222Z,20.25
2019-02-20T14:37:08.176Z,20.49
2019-02-20T14:39:34.009Z,20.54
2019-02-20T14:42:01.041Z,21.05
2019-02-20T14:44:27.265Z,20.72
2019-02-20T14:46:53.525Z,18.81
2019-02-20T14:49:19.370Z,20.90
2019-02-20T14:51:45.209Z,19.99
2019-02-20T14:54:11.258Z,19.57
2019-02-20T14:56:37.187Z,19.95
2019-02-20T14:59:03.052Z,22.09
2019-02-20T15:01:28.982Z,21.44
2019-02-20T15:03:54.972Z,20.41
2019-02-20T15:06:20.836Z,19.48
2019-02-20T15:08:46.795Z,18.27
2019-02-20T15:11:12.754Z,18.00
2019-02-20T15:13:38.734Z,17.45
2019-02-20T15:16:04.595Z,16.67
2019-02-20T15:18:30.557Z,16.83
2019-02-20T15:20:56.542Z,16.79
2019-02-20T15:23:22.502Z,16.54
2019-02-20T15:25:48.391Z,16.09
2019-02-20T15:28:14.812Z,16.33
2019-02-20T15:30:40.846Z,15.79
2019-02-20T15:33:06.821Z,15.83
2019-02-20T15:35:32.701Z,15.53
2019-02-20T15:37:58.675Z,15.37
2019-02-20T15:40:24.963Z,15.30
2019-02-20T15:42:50.806Z,14.68
2019-02-20T15:45:16.778Z,14.30
2019-02-20T15:47:42.608Z,14.13
2019-02-20T15:50:11.543Z,13.92
2019-02-20T15:52:37.493Z,13.77
2019-02-20T15:55:05.272Z,13.52
2019-02-20T15:57:37.891Z,13.20
2019-02-20T15:59:59.018Z,13.49
2019-02-20T16:02:24.861Z,13.64
2019-02-20T16:04:50.782Z,13.09
2019-02-20T16:07:16.723Z,13.12
2019-02-20T16:09:42.818Z,13.32
2019-02-20T16:12:09.070Z,13.10
2019-02-20T16:14:35.039Z,12.84
2019-02-20T16:17:01.105Z,12.82
2019-02-20T16:19:27.042Z,12.80
2019-02-20T16:21:53.044Z,12.64
2019-02-20T16:24:18.899Z,12.43
2019-02-20T16:26:44.907Z,12.47
2019-02-20T16:29:10.726Z,12.43
2019-02-20T16:31:36.722Z,12.44
2019-02-20T16:34:02.950Z,12.32
2019-02-20T16:36:28.824Z,12.31
2019-02-20T16:38:54.820Z,12.32
2019-02-20T16:41:20.827Z,12.27
2019-02-20T16:43:48.599Z,12.14
2019-02-20T16:46:16.864Z,12.13
2019-02-20T16:48:43.211Z,12.04
2019-02-20T16:51:09.369Z,11.98
2019-02-20T16:53:35.536Z,11.87
2019-02-20T16:56:01.395Z,11.74
2019-02-20T16:58:27.282Z,11.56
2019-02-20T17:00:53.208Z,11.40
2019-02-20T17:03:19.213Z,11.31
2019-02-20T17:05:45.097Z,11.21
2019-02-20T17:08:11.062Z,11.04
2019-02-20T17:10:36.921Z,10.91
2019-02-20T17:13:03.082Z,10.79
2019-02-20T17:15:29.544Z,10.64
2019-02-20T17:17:55.437Z,10.48
2019-02-20T17:20:21.409Z,10.31
2019-02-20T17:22:47.383Z,10.16
2019-02-20T17:25:13.722Z,9.98
2019-02-20T17:27:39.732Z,9.85
2019-02-20T17:30:11.698Z,9.73
2019-02-20T17:32:37.665Z,9.58
2019-02-20T17:35:05.716Z,9.48
2019-02-20T17:37:31.766Z,9.32
2019-02-20T17:39:57.648Z,9.18
2019-02-20T17:42:23.588Z,9.07
2019-02-20T17:44:49.453Z,8.93
2019-02-20T17:47:15.404Z,8.82
2019-02-20T17:49:41.382Z,8.76
2019-02-20T17:52:07.272Z,8.67
2019-02-20T17:54:33.883Z,8.58
2019-02-20T17:56:59.700Z,8.50
2019-02-20T17:59:25.678Z,8.44
2019-02-20T18:01:51.732Z,8.40
2019-02-20T18:04:17.629Z,8.36
2019-02-20T18:06:43.605Z,8.32
2019-02-20T18:09:10.638Z,8.27
2019-02-20T18:11:36.499Z,8.18
2019-02-20T18:14:02.480Z,8.11
2019-02-20T18:16:28.383Z,8.06
2019-02-20T18:18:54.189Z,8.01
2019-02-20T18:21:20.169Z,7.98
2019-02-20T18:23:46.057Z,7.97
2019-02-20T18:26:12.082Z,7.94
2019-02-20T18:28:37.916Z,7.92
2019-02-20T18:31:03.894Z,7.90
2019-02-20T18:33:29.827Z,7.89
2019-02-20T18:35:55.699Z,7.85
2019-02-20T18:38:21.541Z,7.84
2019-02-20T18:40:47.364Z,7.77
2019-02-20T18:43:13.231Z,7.71
2019-02-20T18:45:39.200Z,7.63
2019-02-20T18:48:05.385Z,7.58
2019-02-20T18:50:31.259Z,7.56
2019-02-20T18:52:57.173Z,7.57
2019-02-20T18:55:23.121Z,7.55
2019-02-20T18:57:49.052Z,7.59
2019-02-20T19:00:21.370Z,7.60
2019-02-20T19:02:47.232Z,7.63
2019-02-20T19:05:13.596Z,7.65
2019-02-20T19:07:39.553Z,7.64
2019-02-20T19:10:18.268Z,7.60
2019-02-20T19:13:09.202Z,7.57
2019-02-20T19:15:41.942Z,7.51
2019-02-20T19:18:30.021Z,7.44
2019-02-20T19:21:23.986Z,7.42
2019-02-20T19:24:19.676Z,7.37
2019-02-20T19:27:07.626Z,7.29
2019-02-20T19:29:58.605Z,7.19
2019-02-20T19:32:40.530Z,7.08
2019-02-20T19:35:28.179Z,7.00
2019-02-20T19:38:09.704Z,6.98
2019-02-20T19:41:04.625Z,6.95
2019-02-20T19:43:34.286Z,6.96
2019-02-20T19:46:23.481Z,6.92
2019-02-20T19:49:08.429Z,6.88
2019-02-20T19:51:44.285Z,6.82
2019-02-20T19:54:20.161Z,6.76
2019-02-20T19:56:49.807Z,6.73
2019-02-20T19:59:22.133Z,6.67
2019-02-20T20:02:12.994Z,6.60
2019-02-20T20:04:45.670Z,6.54
2019-02-20T20:07:48.965Z,6.46
2019-02-20T20:10:39.904Z,6.45
2019-02-20T20:13:35.474Z,6.40
2019-02-20T20:16:20.151Z,6.32
2019-02-20T20:18:58.765Z,6.28
2019-02-20T20:21:45.051Z,6.24
2019-02-20T20:24:32.530Z,6.18
2019-02-20T20:27:25.298Z,6.11
2019-02-20T20:30:28.796Z,6.10
2019-02-20T20:33:04.211Z,6.05
2019-02-20T20:35:57.200Z,6.00
2019-02-20T20:38:32.624Z,5.97
2019-02-20T20:41:09.182Z,5.96
2019-02-20T20:43:54.516Z,5.95
2019-02-20T20:46:42.637Z,5.90
2019-02-20T20:49:18.117Z,5.85
2019-02-20T20:51:50.871Z,5.82
2019-02-20T20:54:29.419Z,5.79
2019-02-20T20:57:19.942Z,5.74
2019-02-20T20:59:52.306Z,5.66
2019-02-20T21:02:25.001Z,5.62
2019-02-20T21:05:23.788Z,5.60
2019-02-20T21:07:56.505Z,5.56
2019-02-20T21:10:28.907Z,5.50
2019-02-20T21:13:10.594Z,5.46
2019-02-20T21:16:00.884Z,5.46
2019-02-20T21:18:39.663Z,5.43
2019-02-20T21:21:15.424Z,5.40
2019-02-20T21:23:54.252Z,5.34
2019-02-20T21:26:58.969Z,5.34
2019-02-20T21:29:47.422Z,5.30
2019-02-20T21:32:23.426Z,5.27
2019-02-20T21:34:58.954Z,5.25
2019-02-20T21:37:37.337Z,5.26
2019-02-20T21:40:29.571Z,5.26
2019-02-20T21:43:21.881Z,5.26
2019-02-20T21:46:09.629Z,5.23
2019-02-20T21:48:59.072Z,5.22
2019-02-20T21:51:28.887Z,5.17
2019-02-20T21:54:04.337Z,5.18
2019-02-20T21:56:37.045Z,5.12
2019-02-20T21:59:15.484Z,5.08
2019-02-20T22:01:57.075Z,5.05
2019-02-20T22:04:32.834Z,5.03
2019-02-20T22:07:30.352Z,5.10
2019-02-20T22:10:08.804Z,5.13
2019-02-20T22:13:11.937Z,5.07
2019-02-20T22:15:47.888Z,5.01
2019-02-20T22:18:35.763Z,4.96
2019-02-20T22:21:11.299Z,5.01
2019-02-20T22:23:56.004Z,4.98
2019-02-20T22:26:34.601Z,4.97
2019-02-20T22:29:33.483Z,4.98
2019-02-20T22:32:03.190Z,4.96
2019-02-20T22:35:03.452Z,4.95
2019-02-20T22:37:47.907Z,4.92
2019-02-20T22:40:35.613Z,4.93
2019-02-20T22:43:31.908Z,4.94
2019-02-20T22:46:13.755Z,4.88
2019-02-20T22:48:58.385Z,4.88
2019-02-20T22:51:47.912Z,4.90
2019-02-20T22:54:44.608Z,4.85
2019-02-20T22:57:26.126Z,4.83
2019-02-20T23:00:34.623Z,4.86
2019-02-20T23:03:12.246Z,4.89
2019-02-20T23:05:48.113Z,4.82
2019-02-20T23:08:20.549Z,4.83
2019-02-20T23:11:08.608Z,4.82
2019-02-20T23:13:41.016Z,4.84
2019-02-20T23:16:06.910Z,4.92
2019-02-20T23:18:32.723Z,5.03
2019-02-20T23:20:58.682Z,5.17
2019-02-20T23:23:24.536Z,5.19
2019-02-20T23:25:50.389Z,5.14
2019-02-20T23:28:16.234Z,5.05
2019-02-20T23:30:42.063Z,4.96
2019-02-20T23:33:07.928Z,4.92
2019-02-20T23:35:33.763Z,4.90
2019-02-20T23:37:59.606Z,4.87
2019-02-20T23:40:27.609Z,4.87
2019-02-20T23:42:53.208Z,4.88
2019-02-20T23:45:19.205Z,4.84
2019-02-20T23:47:45.050Z,4.81
2019-02-20T23:50:11.070Z,4.81
2019-02-20T23:52:37.280Z,4.82
2019-02-20T23:55:05.051Z,4.79
2019-02-20T23:57:30.878Z,4.75
2019-02-20T23:59:57.138Z,4.73
